Terminal Aerodrome Forecast
Issued by NWS

Home | Current Version | Previous Version | Text Only | Print | Product List | Glossary On
Versions: 1 2 3 4 5 6 7 8 9 10 11 12 13 14
000
FTAK31 PANC 250531
TAFACD
TAF
PACD 250531Z 2506/2606 30007KT P6SM VCSH SCT025 BKN050
     FM260000 26012KT P6SM -SHRA BKN035
     FM260500 24015KT P6SM -RA BKN025=

USA.gov is the U.S. government's official web portal to all federal, state and local government web resources and services.